Time;durP1;ratioP1;P1;durP2;ratioP2;P2;SDS_P1;SDS_P2;PMS_P1;PMS_P2;Temp;Humidity;BMP_temperature;BMP_pressure;BME280_temperature;BME280_humidity;BME280_pressure;Samples;Min_cycle;Max_cycle;Signal;HPM_P1;HPM_P2
2023/03/02 00:02:00;;;;;;;23.73;16.30;;;;;;;;;;5114787;28;20725;-78
2023/03/02 00:04:29;;;;;;;26.07;16.47;;;;;;;;;;5115177;28;20198;-77
2023/03/02 00:06:58;;;;;;;24.10;15.83;;;;;;;;;;5114884;28;20281;-77
2023/03/02 00:09:26;;;;;;;20.20;14.17;;;;;;;;;;5115135;28;20221;-76
2023/03/02 00:11:53;;;;;;;22.27;15.40;;;;;;;;;;5114804;28;20231;-75
2023/03/02 00:14:20;;;;;;;25.20;16.80;;;;;;;;;;5114620;28;20225;-74
2023/03/02 00:16:48;;;;;;;23.73;15.77;;;;;;;;;;5114728;27;20285;-78
2023/03/02 00:19:16;;;;;;;24.53;15.53;;;;;;;;;;5114251;28;20306;-76
2023/03/02 00:21:43;;;;;;;19.63;13.23;;;;;;;;;;5114573;28;20593;-77
2023/03/02 00:24:10;;;;;;;19.80;13.50;;;;;;;;;;5114933;28;20228;-77
2023/03/02 00:26:38;;;;;;;20.80;14.03;;;;;;;;;;5114662;28;20285;-77
2023/03/02 00:29:05;;;;;;;31.10;21.00;;;;;;;;;;5113948;28;20242;-76
2023/03/02 00:31:32;;;;;;;29.30;21.20;;;;;;;;;;5114774;28;20285;-77
2023/03/02 00:34:00;;;;;;;21.83;14.40;;;;;;;;;;5114119;28;20277;-77
2023/03/02 00:36:28;;;;;;;20.73;13.37;;;;;;;;;;5114346;28;20232;-77
2023/03/02 00:38:56;;;;;;;21.50;13.33;;;;;;;;;;5114455;28;20282;-78
2023/03/02 00:41:23;;;;;;;20.10;13.10;;;;;;;;;;5114103;28;20229;-77
2023/03/02 00:43:51;;;;;;;21.03;13.60;;;;;;;;;;5113935;27;20202;-77
2023/03/02 00:46:19;;;;;;;20.10;12.53;;;;;;;;;;5113961;28;20337;-77
2023/03/02 00:48:46;;;;;;;24.53;13.80;;;;;;;;;;5113891;28;20214;-77
2023/03/02 00:51:15;;;;;;;21.90;14.03;;;;;;;;;;5113949;28;20213;-76
2023/03/02 00:53:42;;;;;;;23.03;14.13;;;;;;;;;;5114130;28;20625;-77
2023/03/02 00:56:10;;;;;;;21.63;13.77;;;;;;;;;;5114154;28;20225;-75
2023/03/02 00:58:37;;;;;;;20.00;13.10;;;;;;;;;;5113808;28;20285;-77
2023/03/02 01:01:06;;;;;;;19.87;13.07;;;;;;;;;;5113911;28;20312;-77
2023/03/02 01:03:33;;;;;;;19.60;13.17;;;;;;;;;;5114025;28;20642;-77
2023/03/02 01:06:00;;;;;;;23.93;14.77;;;;;;;;;;5113322;28;20293;-77
2023/03/02 01:08:29;;;;;;;42.80;24.83;;;;;;;;;;5113952;28;20621;-77
2023/03/02 01:11:00;;;;;;;29.50;17.30;;;;;;;;;;5113791;28;20221;-77
2023/03/02 01:13:27;;;;;;;22.67;14.93;;;;;;;;;;5113246;28;20694;-74
2023/03/02 01:16:00;;;;;;;25.30;14.97;;;;;;;;;;5113395;28;20243;-77
2023/03/02 01:18:27;;;;;;;21.10;13.57;;;;;;;;;;5113695;28;20221;-77
2023/03/02 01:21:01;;;;;;;22.00;13.87;;;;;;;;;;5113223;28;20315;-77
2023/03/02 01:23:30;;;;;;;21.33;13.37;;;;;;;;;;5113367;28;20684;-77
2023/03/02 01:25:57;;;;;;;19.67;13.10;;;;;;;;;;5113149;28;20281;-77
2023/03/02 01:28:24;;;;;;;21.43;13.17;;;;;;;;;;5113256;28;20285;-76
2023/03/02 01:30:51;;;;;;;19.10;12.20;;;;;;;;;;5113580;28;20228;-77
2023/03/02 01:33:18;;;;;;;18.20;12.47;;;;;;;;;;5113019;28;20701;-74
2023/03/02 01:35:46;;;;;;;19.77;12.50;;;;;;;;;;5113406;28;20284;-77
2023/03/02 01:38:13;;;;;;;20.47;11.77;;;;;;;;;;5113429;28;20263;-76
2023/03/02 01:40:41;;;;;;;20.27;12.07;;;;;;;;;;5112802;28;20674;-76
2023/03/02 01:43:11;;;;;;;20.33;12.37;;;;;;;;;;5112876;28;20284;-76
2023/03/02 01:45:44;;;;;;;20.10;12.73;;;;;;;;;;5112831;28;20341;-77
2023/03/02 01:48:11;;;;;;;18.87;12.17;;;;;;;;;;5112570;28;20289;-76
2023/03/02 01:50:38;;;;;;;21.43;13.07;;;;;;;;;;5112500;28;20741;-77
2023/03/02 01:53:06;;;;;;;19.40;11.60;;;;;;;;;;5112863;28;20285;-76
2023/03/02 01:55:34;;;;;;;20.37;12.30;;;;;;;;;;5113001;28;20194;-76
2023/03/02 01:58:03;;;;;;;19.33;11.90;;;;;;;;;;5112857;28;20289;-78
2023/03/02 02:00:32;;;;;;;19.93;12.10;;;;;;;;;;5112909;28;20316;-74
2023/03/02 02:03:07;;;;;;;21.80;13.00;;;;;;;;;;5111164;28;20194;-77
2023/03/02 02:05:35;;;;;;;21.60;12.17;;;;;;;;;;5112730;28;20197;-76
2023/03/02 02:08:03;;;;;;;19.47;12.33;;;;;;;;;;5112288;28;20194;-74
2023/03/02 02:10:31;;;;;;;18.90;12.20;;;;;;;;;;5112935;28;20380;-74
2023/03/02 02:12:58;;;;;;;19.60;12.70;;;;;;;;;;5112405;28;20745;-76
2023/03/02 02:15:27;;;;;;;18.93;12.17;;;;;;;;;;5111871;28;20754;-77
2023/03/02 02:17:54;;;;;;;21.80;12.30;;;;;;;;;;5112614;28;20786;-76
2023/03/02 02:20:27;;;;;;;21.03;13.20;;;;;;;;;;5112438;28;20759;-77
2023/03/02 02:22:58;;;;;;;20.43;12.93;;;;;;;;;;5112081;28;20636;-76
2023/03/02 02:25:31;;;;;;;19.60;12.07;;;;;;;;;;5112072;28;20285;-76
2023/03/02 02:28:00;;;;;;;21.07;12.30;;;;;;;;;;5112216;28;20276;-77
2023/03/02 02:30:28;;;;;;;19.80;12.60;;;;;;;;;;5112348;28;20631;-76
2023/03/02 02:32:56;;;;;;;19.17;12.33;;;;;;;;;;5112292;28;20201;-76
2023/03/02 02:35:26;;;;;;;19.30;12.33;;;;;;;;;;5112122;28;20305;-77
2023/03/02 02:37:54;;;;;;;17.93;12.13;;;;;;;;;;5112062;28;20237;-77
2023/03/02 02:40:23;;;;;;;19.40;12.43;;;;;;;;;;5112186;28;20289;-75
2023/03/02 02:42:52;;;;;;;18.37;12.20;;;;;;;;;;5111784;27;20241;-77
2023/03/02 02:45:22;;;;;;;19.33;11.93;;;;;;;;;;5111559;28;20249;-74
2023/03/02 02:47:50;;;;;;;20.07;12.40;;;;;;;;;;5111769;28;20289;-75
2023/03/02 02:50:18;;;;;;;19.00;12.93;;;;;;;;;;5112129;28;20633;-77
2023/03/02 02:52:46;;;;;;;18.90;12.57;;;;;;;;;;5111603;28;20288;-75
2023/03/02 02:55:15;;;;;;;20.97;12.60;;;;;;;;;;5112041;28;20285;-77
2023/03/02 02:57:43;;;;;;;21.40;13.17;;;;;;;;;;5111862;28;20289;-76
2023/03/02 03:00:15;;;;;;;25.13;13.23;;;;;;;;;;5111484;28;20721;-75
2023/03/02 03:02:46;;;;;;;20.97;12.10;;;;;;;;;;5111666;28;20221;-75
2023/03/02 03:05:15;;;;;;;19.47;13.17;;;;;;;;;;5111969;28;20594;-76
2023/03/02 03:07:42;;;;;;;22.33;13.17;;;;;;;;;;5111977;28;20285;-74
2023/03/02 03:10:11;;;;;;;22.63;13.03;;;;;;;;;;5111895;28;20293;-76
2023/03/02 03:12:39;;;;;;;20.00;12.93;;;;;;;;;;5111689;28;20224;-77
2023/03/02 03:15:07;;;;;;;22.53;12.63;;;;;;;;;;5113761;28;20277;-77
2023/03/02 03:17:34;;;;;;;22.73;12.10;;;;;;;;;;5115673;28;20769;-77
2023/03/02 03:20:06;;;;;;;21.20;12.33;;;;;;;;;;5115708;28;20619;-77
2023/03/02 03:22:35;;;;;;;21.57;12.27;;;;;;;;;;5115864;28;20316;-76
2023/03/02 03:25:02;;;;;;;19.47;12.43;;;;;;;;;;5115868;28;20229;-77
2023/03/02 03:27:29;;;;;;;23.50;13.13;;;;;;;;;;5115109;28;20677;-76
2023/03/02 03:29:56;;;;;;;21.00;13.30;;;;;;;;;;5115413;28;20217;-74
2023/03/02 03:32:24;;;;;;;21.20;12.97;;;;;;;;;;5107959;27;20289;-77
2023/03/02 03:34:51;;;;;;;19.83;12.33;;;;;;;;;;5101310;28;20289;-75
2023/03/02 03:37:20;;;;;;;21.80;13.10;;;;;;;;;;5094954;28;20241;-73
2023/03/02 03:39:48;;;;;;;19.57;12.70;;;;;;;;;;5095299;28;20609;-73
2023/03/02 03:42:15;;;;;;;19.93;13.30;;;;;;;;;;5094746;28;20325;-77
2023/03/02 03:44:42;;;;;;;21.23;13.53;;;;;;;;;;5094994;28;20265;-77
2023/03/02 03:47:09;;;;;;;23.13;13.77;;;;;;;;;;5095051;28;20281;-76
2023/03/02 03:49:37;;;;;;;24.00;14.93;;;;;;;;;;5094654;28;20285;-77
2023/03/02 03:52:04;;;;;;;22.13;13.57;;;;;;;;;;5095228;28;20282;-76
2023/03/02 03:54:33;;;;;;;22.73;13.47;;;;;;;;;;5094929;28;20281;-77
2023/03/02 03:57:00;;;;;;;22.80;14.10;;;;;;;;;;5094581;28;20294;-77
2023/03/02 03:59:27;;;;;;;22.20;13.23;;;;;;;;;;5094545;28;20190;-77
2023/03/02 04:01:56;;;;;;;23.97;14.37;;;;;;;;;;5094754;28;20337;-76
2023/03/02 04:04:25;;;;;;;25.50;14.57;;;;;;;;;;5094232;28;20286;-76
2023/03/02 04:06:53;;;;;;;23.73;13.87;;;;;;;;;;5094100;28;20631;-76
2023/03/02 04:09:20;;;;;;;19.37;13.17;;;;;;;;;;5094373;28;20230;-76
2023/03/02 04:11:49;;;;;;;21.30;13.77;;;;;;;;;;5098281;28;20232;-77
2023/03/02 04:14:17;;;;;;;23.17;14.07;;;;;;;;;;5115177;28;20280;-77
2023/03/02 04:16:44;;;;;;;22.33;13.63;;;;;;;;;;5114626;28;20221;-76
2023/03/02 04:19:12;;;;;;;23.63;14.50;;;;;;;;;;5115095;28;20281;-76
2023/03/02 04:21:40;;;;;;;24.67;14.67;;;;;;;;;;5114634;28;20300;-76
2023/03/02 04:24:08;;;;;;;24.70;14.80;;;;;;;;;;5114741;28;20288;-77
2023/03/02 04:26:35;;;;;;;22.97;14.47;;;;;;;;;;5112993;28;20221;-76
2023/03/02 04:29:04;;;;;;;24.07;14.90;;;;;;;;;;5114501;28;20777;-76
2023/03/02 04:31:31;;;;;;;22.63;14.63;;;;;;;;;;5114515;28;20798;-77
2023/03/02 04:33:59;;;;;;;23.60;14.67;;;;;;;;;;5114511;28;20742;-76
2023/03/02 04:36:26;;;;;;;23.97;15.57;;;;;;;;;;5114332;28;20225;-77
2023/03/02 04:38:53;;;;;;;24.77;15.60;;;;;;;;;;5114418;28;20629;-76
2023/03/02 04:41:22;;;;;;;24.03;14.83;;;;;;;;;;5113752;28;20218;-76
2023/03/02 04:43:51;;;;;;;22.63;15.00;;;;;;;;;;5114069;28;20194;-77
2023/03/02 04:46:21;;;;;;;22.90;15.03;;;;;;;;;;5113922;28;20845;-76
2023/03/02 04:48:49;;;;;;;24.93;15.03;;;;;;;;;;5113756;28;20197;-76
2023/03/02 04:51:17;;;;;;;23.77;14.33;;;;;;;;;;5113829;28;20281;-77
2023/03/02 04:53:44;;;;;;;22.30;15.13;;;;;;;;;;5114046;28;20288;-76
2023/03/02 04:56:12;;;;;;;27.20;15.03;;;;;;;;;;5113507;28;20225;-76
2023/03/02 04:58:39;;;;;;;26.53;15.33;;;;;;;;;;5113775;28;20248;-77
2023/03/02 05:01:06;;;;;;;28.43;16.30;;;;;;;;;;5114310;28;20226;-76
2023/03/02 05:03:34;;;;;;;28.30;16.97;;;;;;;;;;5113653;28;20257;-77
2023/03/02 05:06:03;;;;;;;28.27;17.70;;;;;;;;;;5113734;28;20197;-76
2023/03/02 05:08:30;;;;;;;28.47;16.73;;;;;;;;;;5113744;28;20204;-77
2023/03/02 05:10:58;;;;;;;29.00;16.80;;;;;;;;;;5113569;27;20224;-76
2023/03/02 05:13:25;;;;;;;28.70;17.10;;;;;;;;;;5113767;28;20245;-77
2023/03/02 05:15:52;;;;;;;26.47;18.17;;;;;;;;;;5113640;28;20287;-77
2023/03/02 05:18:20;;;;;;;27.33;18.07;;;;;;;;;;5113984;28;20214;-77
2023/03/02 05:20:49;;;;;;;26.77;17.27;;;;;;;;;;5113507;28;20225;-76
2023/03/02 05:23:22;;;;;;;27.20;17.27;;;;;;;;;;5113371;28;20675;-77
2023/03/02 05:25:50;;;;;;;29.67;18.17;;;;;;;;;;5113370;28;20190;-77
2023/03/02 05:28:17;;;;;;;26.60;17.37;;;;;;;;;;5113145;28;20225;-77
2023/03/02 05:30:44;;;;;;;31.90;18.60;;;;;;;;;;5113341;28;20280;-76
2023/03/02 05:33:11;;;;;;;28.67;18.13;;;;;;;;;;5113048;28;20201;-77
2023/03/02 05:35:39;;;;;;;30.50;16.40;;;;;;;;;;5113232;28;20233;-76
2023/03/02 05:38:07;;;;;;;26.27;16.30;;;;;;;;;;5113160;28;20347;-76
2023/03/02 05:40:35;;;;;;;29.27;17.07;;;;;;;;;;5113096;28;20194;-75
2023/03/02 05:43:02;;;;;;;29.63;17.80;;;;;;;;;;5112924;28;20321;-76
2023/03/02 05:45:31;;;;;;;25.70;17.17;;;;;;;;;;5112674;28;20726;-77
2023/03/02 05:47:58;;;;;;;34.03;19.23;;;;;;;;;;5112589;28;20293;-77
2023/03/02 05:50:26;;;;;;;30.73;19.47;;;;;;;;;;5112765;28;20296;-76
2023/03/02 05:52:53;;;;;;;29.83;17.70;;;;;;;;;;5112365;28;20386;-75
2023/03/02 05:55:21;;;;;;;31.03;18.20;;;;;;;;;;5112814;28;20612;-76
2023/03/02 05:57:49;;;;;;;30.93;19.03;;;;;;;;;;5112842;28;20284;-76
2023/03/02 06:00:17;;;;;;;29.50;18.73;;;;;;;;;;5112450;28;20330;-77
2023/03/02 06:02:44;;;;;;;27.37;18.23;;;;;;;;;;5112114;28;20320;-76
2023/03/02 06:05:12;;;;;;;29.53;19.07;;;;;;;;;;5112418;28;20198;-76
2023/03/02 06:07:40;;;;;;;30.93;19.10;;;;;;;;;;5112014;28;20289;-76
2023/03/02 06:10:08;;;;;;;29.73;19.43;;;;;;;;;;5112397;28;20277;-75
2023/03/02 06:12:37;;;;;;;30.50;20.00;;;;;;;;;;5112035;28;20293;-76
2023/03/02 06:15:04;;;;;;;32.30;21.07;;;;;;;;;;5112551;28;20218;-76
2023/03/02 06:17:32;;;;;;;36.00;21.00;;;;;;;;;;5112837;27;20195;-80
2023/03/02 06:19:59;;;;;;;35.93;21.80;;;;;;;;;;5112731;28;20290;-75
2023/03/02 06:22:26;;;;;;;34.27;21.87;;;;;;;;;;5111770;28;20257;-76
2023/03/02 06:24:54;;;;;;;32.93;21.00;;;;;;;;;;5112421;28;20280;-76
2023/03/02 06:27:21;;;;;;;36.03;20.93;;;;;;;;;;5112082;28;20193;-75
2023/03/02 06:29:49;;;;;;;34.30;21.07;;;;;;;;;;5111593;28;20217;-74
2023/03/02 06:32:16;;;;;;;31.40;20.07;;;;;;;;;;5112319;28;20288;-76
2023/03/02 06:34:44;;;;;;;32.47;21.07;;;;;;;;;;5111926;28;20292;-76
2023/03/02 06:37:11;;;;;;;34.17;21.47;;;;;;;;;;5111777;28;20237;-76
2023/03/02 06:39:38;;;;;;;38.93;22.20;;;;;;;;;;5111672;28;20230;-76
2023/03/02 06:42:05;;;;;;;38.10;22.60;;;;;;;;;;5105803;28;20325;-76
2023/03/02 06:44:32;;;;;;;39.77;23.53;;;;;;;;;;5104675;28;20252;-76
2023/03/02 06:47:01;;;;;;;39.83;22.90;;;;;;;;;;5109254;28;20281;-77
2023/03/02 06:49:28;;;;;;;37.23;22.27;;;;;;;;;;5110945;28;20226;-77
2023/03/02 06:51:55;;;;;;;35.80;23.27;;;;;;;;;;5111777;28;20665;-77
2023/03/02 06:54:22;;;;;;;38.97;22.87;;;;;;;;;;5112089;28;20620;-76
2023/03/02 06:56:50;;;;;;;37.87;23.20;;;;;;;;;;5111619;28;20277;-76
2023/03/02 06:59:17;;;;;;;37.60;22.93;;;;;;;;;;5111931;28;20297;-76
2023/03/02 07:01:45;;;;;;;39.00;22.67;;;;;;;;;;5111820;28;20236;-76
2023/03/02 07:04:14;;;;;;;35.10;22.67;;;;;;;;;;5112104;28;20222;-76
2023/03/02 07:06:41;;;;;;;39.50;24.07;;;;;;;;;;5111484;28;20738;-76
2023/03/02 07:09:08;;;;;;;37.67;24.47;;;;;;;;;;5111547;28;20240;-77
2023/03/02 07:11:36;;;;;;;41.17;24.13;;;;;;;;;;5111912;28;20232;-76
2023/03/02 07:14:03;;;;;;;42.00;25.90;;;;;;;;;;5111678;28;20300;-76
2023/03/02 07:16:30;;;;;;;46.23;29.40;;;;;;;;;;5111673;28;20311;-76
2023/03/02 07:18:57;;;;;;;46.00;28.17;;;;;;;;;;5112275;28;20576;-75
2023/03/02 07:21:26;;;;;;;44.17;28.93;;;;;;;;;;5111119;28;20737;-76
2023/03/02 07:23:53;;;;;;;43.33;28.43;;;;;;;;;;5111702;28;20322;-76
2023/03/02 07:26:20;;;;;;;42.00;26.17;;;;;;;;;;5112023;28;20225;-76
2023/03/02 07:28:48;;;;;;;40.63;25.90;;;;;;;;;;5111357;28;20286;-76
2023/03/02 07:31:15;;;;;;;36.50;25.30;;;;;;;;;;5111665;28;20194;-76
2023/03/02 07:33:42;;;;;;;36.23;24.00;;;;;;;;;;5111644;28;20289;-76
2023/03/02 07:36:09;;;;;;;35.77;23.67;;;;;;;;;;5111434;28;20277;-76
2023/03/02 07:38:38;;;;;;;41.43;25.00;;;;;;;;;;5111301;28;20301;-76
2023/03/02 07:41:09;;;;;;;38.90;24.83;;;;;;;;;;5111554;28;20194;-76
2023/03/02 07:43:36;;;;;;;30.57;22.30;;;;;;;;;;5111625;28;20322;-77
2023/03/02 07:46:03;;;;;;;28.03;22.13;;;;;;;;;;5111072;28;20237;-76
2023/03/02 07:48:30;;;;;;;34.40;23.40;;;;;;;;;;5110949;28;20669;-76
2023/03/02 07:50:58;;;;;;;28.33;21.87;;;;;;;;;;5111373;28;20221;-77
2023/03/02 07:53:25;;;;;;;45.77;29.93;;;;;;;;;;5111376;28;20233;-76
2023/03/02 07:55:54;;;;;;;47.33;33.40;;;;;;;;;;5117456;28;20716;-76
2023/03/02 07:58:23;;;;;;;46.33;33.20;;;;;;;;;;5111130;28;20288;-77
2023/03/02 08:00:50;;;;;;;41.00;31.03;;;;;;;;;;5113240;28;20284;-77
2023/03/02 08:03:17;;;;;;;40.63;32.50;;;;;;;;;;5114551;28;20327;-74
2023/03/02 08:05:44;;;;;;;37.73;26.30;;;;;;;;;;5114915;28;20293;-77
2023/03/02 08:08:12;;;;;;;35.63;25.40;;;;;;;;;;5115286;27;20295;-77
2023/03/02 08:10:39;;;;;;;31.37;24.67;;;;;;;;;;5114849;28;20288;-76
2023/03/02 08:13:07;;;;;;;29.73;23.70;;;;;;;;;;5114707;27;20746;-77
2023/03/02 08:15:34;;;;;;;27.93;22.60;;;;;;;;;;5115070;28;20222;-77
2023/03/02 08:18:02;;;;;;;27.23;21.73;;;;;;;;;;5114918;28;20285;-77
2023/03/02 08:20:29;;;;;;;23.20;20.20;;;;;;;;;;5114942;28;20307;-77
2023/03/02 08:22:56;;;;;;;24.23;20.60;;;;;;;;;;5114465;28;20328;-77
2023/03/02 08:25:24;;;;;;;29.47;21.83;;;;;;;;;;5114673;28;20258;-77
2023/03/02 08:27:51;;;;;;;30.60;23.63;;;;;;;;;;5115011;28;20201;-77
2023/03/02 08:30:20;;;;;;;37.10;27.90;;;;;;;;;;5114766;28;20277;-76
2023/03/02 08:32:47;;;;;;;30.73;25.77;;;;;;;;;;5113782;28;20730;-77
2023/03/02 08:35:14;;;;;;;32.13;27.63;;;;;;;;;;5115007;28;20193;-77
2023/03/02 08:37:41;;;;;;;26.40;23.53;;;;;;;;;;5114667;28;20248;-78
2023/03/02 08:40:09;;;;;;;29.57;23.43;;;;;;;;;;5114429;28;20273;-77
2023/03/02 08:42:36;;;;;;;27.97;25.07;;;;;;;;;;5114214;28;20221;-76
2023/03/02 08:45:03;;;;;;;32.27;28.67;;;;;;;;;;5114249;28;20329;-76
2023/03/02 08:47:32;;;;;;;27.97;24.63;;;;;;;;;;5114211;28;20277;-77
2023/03/02 08:49:59;;;;;;;27.40;23.67;;;;;;;;;;5113957;28;20280;-79
2023/03/02 08:52:26;;;;;;;30.63;27.43;;;;;;;;;;5114576;28;20280;-78
2023/03/02 08:54:53;;;;;;;47.17;42.53;;;;;;;;;;5114301;28;20281;-77
2023/03/02 08:57:21;;;;;;;35.70;31.90;;;;;;;;;;5113858;28;20229;-77
2023/03/02 08:59:48;;;;;;;32.13;28.43;;;;;;;;;;5114322;28;20224;-77
2023/03/02 09:02:15;;;;;;;36.17;26.67;;;;;;;;;;5114077;28;20387;-77
2023/03/02 09:04:44;;;;;;;30.53;27.33;;;;;;;;;;5113694;28;20760;-78
2023/03/02 09:07:11;;;;;;;36.30;32.23;;;;;;;;;;5114120;27;20591;-77
2023/03/02 09:09:38;;;;;;;33.53;26.97;;;;;;;;;;5114338;28;20214;-77
2023/03/02 09:12:05;;;;;;;32.13;26.43;;;;;;;;;;5113014;28;20262;-76
2023/03/02 09:14:32;;;;;;;38.10;32.30;;;;;;;;;;5113816;28;20201;-78
2023/03/02 09:17:00;;;;;;;29.53;26.30;;;;;;;;;;5113574;27;20289;-77
2023/03/02 09:19:27;;;;;;;56.10;43.77;;;;;;;;;;5113745;28;20252;-77
2023/03/02 09:21:55;;;;;;;101.00;64.50;;;;;;;;;;5113682;28;20194;-76
2023/03/02 09:24:22;;;;;;;46.13;35.10;;;;;;;;;;5113330;28;20324;-76
2023/03/02 09:26:50;;;;;;;114.77;67.77;;;;;;;;;;5113637;28;20738;-77
2023/03/02 09:29:17;;;;;;;75.00;47.20;;;;;;;;;;5113208;28;20651;-76
2023/03/02 09:31:44;;;;;;;67.27;42.27;;;;;;;;;;5113082;28;20276;-76
2023/03/02 09:34:11;;;;;;;44.20;32.80;;;;;;;;;;5113613;27;20233;-77
2023/03/02 09:36:38;;;;;;;30.80;27.27;;;;;;;;;;5113887;28;20293;-76
2023/03/02 09:39:11;;;;;;;31.67;24.90;;;;;;;;;;5113199;28;20232;-76
2023/03/02 09:41:51;;;;;;;39.53;31.97;;;;;;;;;;5112968;28;20282;-76
2023/03/02 09:44:36;;;;;;;28.07;24.33;;;;;;;;;;5113067;28;20324;-77
2023/03/02 09:47:04;;;;;;;30.33;25.33;;;;;;;;;;5113102;28;20229;-76
2023/03/02 09:49:37;;;;;;;29.77;24.67;;;;;;;;;;5113485;28;20284;-76
2023/03/02 09:52:10;;;;;;;28.37;24.77;;;;;;;;;;5113132;28;20288;-77
2023/03/02 09:54:39;;;;;;;36.40;25.40;;;;;;;;;;5112757;28;20189;-77
2023/03/02 09:57:14;;;;;;;39.03;24.87;;;;;;;;;;5112963;28;20197;-77
2023/03/02 09:59:43;;;;;;;29.30;24.30;;;;;;;;;;5112976;28;20296;-77
2023/03/02 10:02:22;;;;;;;28.00;23.43;;;;;;;;;;5112945;27;20281;-77
2023/03/02 10:04:52;;;;;;;34.80;24.83;;;;;;;;;;5112728;28;20256;-77
2023/03/02 10:07:23;;;;;;;30.83;25.03;;;;;;;;;;5112833;28;20194;-76
2023/03/02 10:09:51;;;;;;;41.13;26.53;;;;;;;;;;5113084;28;20290;-76
2023/03/02 10:12:27;;;;;;;30.70;24.87;;;;;;;;;;5112211;28;20254;-76
2023/03/02 10:14:57;;;;;;;29.67;24.37;;;;;;;;;;5112151;28;20284;-76
2023/03/02 10:17:35;;;;;;;27.47;24.40;;;;;;;;;;5112689;28;20236;-77
2023/03/02 10:20:04;;;;;;;30.30;24.27;;;;;;;;;;5112484;28;20236;-76
2023/03/02 10:22:34;;;;;;;29.87;24.33;;;;;;;;;;5112315;28;20304;-76
2023/03/02 10:25:09;;;;;;;29.63;24.83;;;;;;;;;;5111731;28;20659;-76
2023/03/02 10:27:39;;;;;;;38.07;24.87;;;;;;;;;;5112380;28;20290;-76
2023/03/02 10:30:08;;;;;;;30.07;24.00;;;;;;;;;;5111639;28;20299;-76
2023/03/02 10:32:37;;;;;;;29.10;23.43;;;;;;;;;;5112276;28;20280;-77
2023/03/02 10:35:12;;;;;;;29.83;25.43;;;;;;;;;;5112303;28;20233;-77
2023/03/02 10:37:40;;;;;;;33.07;24.53;;;;;;;;;;5112169;28;20276;-77
2023/03/02 10:40:12;;;;;;;28.43;23.60;;;;;;;;;;5112457;28;20213;-76
2023/03/02 10:42:40;;;;;;;26.90;22.93;;;;;;;;;;5111952;28;20228;-77
2023/03/02 10:45:09;;;;;;;28.00;24.40;;;;;;;;;;5111964;28;20864;-77
2023/03/02 10:47:37;;;;;;;28.07;23.33;;;;;;;;;;5112056;28;20229;-77
2023/03/02 10:50:04;;;;;;;29.47;23.47;;;;;;;;;;5111979;28;20236;-77
2023/03/02 10:52:31;;;;;;;27.43;22.97;;;;;;;;;;5111614;28;20293;-76
2023/03/02 10:55:06;;;;;;;27.37;23.90;;;;;;;;;;5112347;28;20700;-78
2023/03/02 10:57:37;;;;;;;27.53;22.50;;;;;;;;;;5111375;28;20292;-76
2023/03/02 11:00:14;;;;;;;26.90;22.40;;;;;;;;;;5111748;28;20698;-76
2023/03/02 11:02:48;;;;;;;25.80;22.40;;;;;;;;;;5111927;28;20284;-77
2023/03/02 11:05:28;;;;;;;28.53;22.60;;;;;;;;;;5111953;28;20651;-77
2023/03/02 11:07:56;;;;;;;26.50;22.07;;;;;;;;;;5111778;28;20205;-77
2023/03/02 11:10:25;;;;;;;26.90;21.57;;;;;;;;;;5112101;28;20630;-76
2023/03/02 11:12:53;;;;;;;27.63;22.33;;;;;;;;;;5111492;28;20229;-77
2023/03/02 11:15:25;;;;;;;26.77;21.93;;;;;;;;;;5111801;28;20285;-77
2023/03/02 11:17:55;;;;;;;25.93;22.93;;;;;;;;;;5111874;28;20292;-77
2023/03/02 11:20:24;;;;;;;26.47;22.47;;;;;;;;;;5111839;28;20288;-78
2023/03/02 11:22:59;;;;;;;27.63;22.50;;;;;;;;;;5112148;28;20197;-77
2023/03/02 11:25:29;;;;;;;25.77;22.00;;;;;;;;;;5111651;28;20408;-77
2023/03/02 11:28:01;;;;;;;26.07;22.07;;;;;;;;;;5111509;28;20217;-77
2023/03/02 11:30:30;;;;;;;24.97;22.33;;;;;;;;;;5111734;28;20292;-78
2023/03/02 11:33:01;;;;;;;25.40;21.87;;;;;;;;;;5111869;28;20202;-77
2023/03/02 11:35:31;;;;;;;26.00;21.97;;;;;;;;;;5112646;28;20681;-77
2023/03/02 11:38:01;;;;;;;28.37;22.87;;;;;;;;;;5115871;28;20229;-77
2023/03/02 11:40:31;;;;;;;26.40;22.10;;;;;;;;;;5116047;28;20225;-77
2023/03/02 11:43:00;;;;;;;29.13;22.77;;;;;;;;;;5115084;28;20300;-77
2023/03/02 11:45:28;;;;;;;25.50;21.33;;;;;;;;;;5115379;28;20331;-78
2023/03/02 11:47:56;;;;;;;26.63;20.83;;;;;;;;;;5115303;28;20627;-77
2023/03/02 11:50:24;;;;;;;35.17;28.50;;;;;;;;;;5115039;28;20288;-77
2023/03/02 11:52:53;;;;;;;33.07;24.60;;;;;;;;;;5115871;28;20281;-77
2023/03/02 11:55:22;;;;;;;27.67;21.77;;;;;;;;;;5114792;27;20297;-77
2023/03/02 11:57:50;;;;;;;24.93;21.07;;;;;;;;;;5115230;28;20204;-77
2023/03/02 12:00:29;;;;;;;21.10;17.70;;;;;;;;;;5115072;28;20202;-78
2023/03/02 12:03:00;;;;;;;19.60;17.00;;;;;;;;;;5115218;28;20251;-76
2023/03/02 12:05:28;;;;;;;18.53;16.53;;;;;;;;;;5115000;28;20320;-78
2023/03/02 12:07:59;;;;;;;20.53;16.63;;;;;;;;;;5115178;28;20288;-77
2023/03/02 12:10:31;;;;;;;21.13;17.63;;;;;;;;;;5114924;28;20220;-77
2023/03/02 12:13:07;;;;;;;18.83;16.63;;;;;;;;;;5115112;28;20285;-78
2023/03/02 12:15:40;;;;;;;19.33;16.43;;;;;;;;;;5115018;28;20197;-77
2023/03/02 12:18:32;;;;;;;21.77;16.97;;;;;;;;;;5114946;28;20214;-76
2023/03/02 12:20:59;;;;;;;20.17;16.47;;;;;;;;;;5108988;28;20229;-76
2023/03/02 12:23:27;;;;;;;19.83;15.87;;;;;;;;;;5115223;28;20280;-77
2023/03/02 12:26:02;;;;;;;18.67;15.70;;;;;;;;;;5114250;28;20312;-78
2023/03/02 12:28:31;;;;;;;19.13;16.23;;;;;;;;;;5114629;28;20753;-77
2023/03/02 12:31:13;;;;;;;20.03;17.10;;;;;;;;;;5114582;28;20286;-77
2023/03/02 12:33:48;;;;;;;22.53;17.83;;;;;;;;;;5114419;27;20284;-77
2023/03/02 12:36:19;;;;;;;24.93;19.57;;;;;;;;;;5114901;28;20620;-76
2023/03/02 12:38:53;;;;;;;23.67;18.93;;;;;;;;;;5114005;28;20236;-76
2023/03/02 12:41:26;;;;;;;19.87;17.70;;;;;;;;;;5114449;28;20240;-77
2023/03/02 12:43:59;;;;;;;24.57;19.03;;;;;;;;;;5114469;28;20342;-77
2023/03/02 12:46:32;;;;;;;20.40;17.53;;;;;;;;;;5114381;28;20225;-78
2023/03/02 12:49:01;;;;;;;22.00;17.17;;;;;;;;;;5113591;28;20280;-78
2023/03/02 12:51:29;;;;;;;21.13;17.03;;;;;;;;;;5114229;28;20225;-77
2023/03/02 12:54:03;;;;;;;21.60;17.87;;;;;;;;;;5114126;28;20293;-77
2023/03/02 12:56:30;;;;;;;20.83;17.87;;;;;;;;;;5114136;28;20217;-76
2023/03/02 12:58:57;;;;;;;20.13;17.23;;;;;;;;;;5114326;28;20292;-77
2023/03/02 13:01:25;;;;;;;20.30;17.20;;;;;;;;;;5114406;28;20296;-78
2023/03/02 13:03:54;;;;;;;21.90;17.57;;;;;;;;;;5113923;28;20285;-77
2023/03/02 13:06:22;;;;;;;23.83;17.33;;;;;;;;;;5114298;28;20297;-78
2023/03/02 13:08:51;;;;;;;21.87;17.37;;;;;;;;;;5113585;28;20194;-78
2023/03/02 13:11:22;;;;;;;21.53;16.70;;;;;;;;;;5113899;28;20245;-77
2023/03/02 13:13:49;;;;;;;21.77;16.67;;;;;;;;;;5113672;28;20280;-77
2023/03/02 13:16:21;;;;;;;20.10;15.90;;;;;;;;;;5114280;28;20194;-77
2023/03/02 13:18:52;;;;;;;20.83;16.70;;;;;;;;;;5113542;28;20212;-78
2023/03/02 13:21:21;;;;;;;23.30;17.07;;;;;;;;;;5113708;28;20228;-77
2023/03/02 13:23:49;;;;;;;21.43;17.13;;;;;;;;;;5113374;28;20293;-77
2023/03/02 13:26:27;;;;;;;21.23;17.70;;;;;;;;;;5113764;28;20202;-77
2023/03/02 13:29:01;;;;;;;21.00;17.67;;;;;;;;;;5114064;28;20276;-78
2023/03/02 13:31:30;;;;;;;24.00;16.90;;;;;;;;;;5113471;28;20199;-76
2023/03/02 13:33:58;;;;;;;19.60;16.77;;;;;;;;;;5113562;28;20229;-77
2023/03/02 13:36:27;;;;;;;23.10;16.50;;;;;;;;;;5113979;28;20225;-78
2023/03/02 13:38:55;;;;;;;20.50;15.53;;;;;;;;;;5113337;28;20285;-77
2023/03/02 13:41:23;;;;;;;25.10;17.40;;;;;;;;;;5113189;28;20289;-77
2023/03/02 13:43:50;;;;;;;20.73;17.07;;;;;;;;;;5113731;28;20225;-77
2023/03/02 13:46:28;;;;;;;19.97;17.30;;;;;;;;;;5112811;28;20779;-77
2023/03/02 13:48:56;;;;;;;21.93;16.67;;;;;;;;;;5113073;28;20205;-77
2023/03/02 13:51:24;;;;;;;21.53;17.50;;;;;;;;;;5112526;28;20285;-77
2023/03/02 13:53:55;;;;;;;19.73;16.53;;;;;;;;;;5113027;28;20194;-78
2023/03/02 13:56:25;;;;;;;21.63;17.03;;;;;;;;;;5113041;28;20657;-77
2023/03/02 13:58:52;;;;;;;22.37;17.90;;;;;;;;;;5112705;28;20289;-78
2023/03/02 14:01:19;;;;;;;19.93;17.07;;;;;;;;;;5113056;28;20649;-78
2023/03/02 14:03:46;;;;;;;31.60;17.30;;;;;;;;;;5112790;28;20247;-77
2023/03/02 14:06:14;;;;;;;19.73;17.00;;;;;;;;;;5112595;28;20313;-77
2023/03/02 14:08:41;;;;;;;23.23;16.97;;;;;;;;;;5112751;28;20301;-77
2023/03/02 14:11:11;;;;;;;20.37;16.97;;;;;;;;;;5112816;28;20217;-78
2023/03/02 14:13:41;;;;;;;23.03;19.00;;;;;;;;;;5112801;28;20306;-78
2023/03/02 14:16:11;;;;;;;23.83;20.47;;;;;;;;;;5092212;28;20278;-78
2023/03/02 14:18:39;;;;;;;23.23;19.17;;;;;;;;;;5092322;28;20232;-77
2023/03/02 14:21:06;;;;;;;21.87;17.60;;;;;;;;;;5092126;28;20194;-78
2023/03/02 14:23:34;;;;;;;25.90;18.87;;;;;;;;;;5092348;28;20279;-78
2023/03/02 14:26:01;;;;;;;25.23;19.83;;;;;;;;;;5091916;28;20328;-77